sensor_id;sensor_type;location;lat;lon;timestamp;P1;durP1;ratioP1;P2;durP2;ratioP2
10387;SDS011;5240;51.128;4.566;2022-12-10T00:01:28;42.97;;;22.33;;
10387;SDS011;5240;51.128;4.566;2022-12-10T00:03:56;43.75;;;22.70;;
10387;SDS011;5240;51.128;4.566;2022-12-10T00:06:24;39.97;;;22.80;;
10387;SDS011;5240;51.128;4.566;2022-12-10T00:08:53;43.80;;;23.27;;
10387;SDS011;5240;51.128;4.566;2022-12-10T00:11:21;41.20;;;22.20;;
10387;SDS011;5240;51.128;4.566;2022-12-10T00:13:51;47.47;;;24.40;;
10387;SDS011;5240;51.128;4.566;2022-12-10T00:16:19;42.77;;;22.63;;
10387;SDS011;5240;51.128;4.566;2022-12-10T00:18:47;41.10;;;22.27;;
10387;SDS011;5240;51.128;4.566;2022-12-10T00:21:16;43.43;;;22.80;;
10387;SDS011;5240;51.128;4.566;2022-12-10T00:23:44;41.37;;;21.37;;
10387;SDS011;5240;51.128;4.566;2022-12-10T00:26:12;43.07;;;23.13;;
10387;SDS011;5240;51.128;4.566;2022-12-10T00:28:41;42.67;;;22.60;;
10387;SDS011;5240;51.128;4.566;2022-12-10T00:31:10;45.20;;;24.27;;
10387;SDS011;5240;51.128;4.566;2022-12-10T00:33:40;49.60;;;23.03;;
10387;SDS011;5240;51.128;4.566;2022-12-10T00:36:09;46.80;;;24.20;;
10387;SDS011;5240;51.128;4.566;2022-12-10T00:38:38;40.20;;;22.30;;
10387;SDS011;5240;51.128;4.566;2022-12-10T00:41:06;45.43;;;24.20;;
10387;SDS011;5240;51.128;4.566;2022-12-10T00:43:33;44.47;;;25.17;;
10387;SDS011;5240;51.128;4.566;2022-12-10T00:46:00;44.93;;;25.53;;
10387;SDS011;5240;51.128;4.566;2022-12-10T00:48:29;45.73;;;25.73;;
10387;SDS011;5240;51.128;4.566;2022-12-10T00:50:57;49.63;;;25.70;;
10387;SDS011;5240;51.128;4.566;2022-12-10T00:53:27;55.40;;;26.90;;
10387;SDS011;5240;51.128;4.566;2022-12-10T00:55:56;52.03;;;25.83;;
10387;SDS011;5240;51.128;4.566;2022-12-10T00:58:23;45.73;;;24.63;;
10387;SDS011;5240;51.128;4.566;2022-12-10T01:00:53;49.03;;;26.23;;
10387;SDS011;5240;51.128;4.566;2022-12-10T01:03:20;47.80;;;27.57;;
10387;SDS011;5240;51.128;4.566;2022-12-10T01:05:48;51.40;;;27.17;;
10387;SDS011;5240;51.128;4.566;2022-12-10T01:08:15;49.83;;;27.50;;
10387;SDS011;5240;51.128;4.566;2022-12-10T01:10:42;50.23;;;26.60;;
10387;SDS011;5240;51.128;4.566;2022-12-10T01:13:11;54.07;;;28.00;;
10387;SDS011;5240;51.128;4.566;2022-12-10T01:15:39;53.40;;;27.43;;
10387;SDS011;5240;51.128;4.566;2022-12-10T01:18:06;54.83;;;28.27;;
10387;SDS011;5240;51.128;4.566;2022-12-10T01:20:34;56.67;;;28.43;;
10387;SDS011;5240;51.128;4.566;2022-12-10T01:23:03;53.90;;;28.50;;
10387;SDS011;5240;51.128;4.566;2022-12-10T01:25:30;53.40;;;29.00;;
10387;SDS011;5240;51.128;4.566;2022-12-10T01:27:57;54.27;;;29.03;;
10387;SDS011;5240;51.128;4.566;2022-12-10T01:30:24;60.27;;;29.13;;
10387;SDS011;5240;51.128;4.566;2022-12-10T01:32:51;59.23;;;30.47;;
10387;SDS011;5240;51.128;4.566;2022-12-10T01:35:19;56.93;;;30.53;;
10387;SDS011;5240;51.128;4.566;2022-12-10T01:37:46;58.85;;;30.90;;
10387;SDS011;5240;51.128;4.566;2022-12-10T01:40:14;59.93;;;30.80;;
10387;SDS011;5240;51.128;4.566;2022-12-10T01:42:42;60.37;;;30.40;;
10387;SDS011;5240;51.128;4.566;2022-12-10T01:45:10;59.87;;;29.87;;
10387;SDS011;5240;51.128;4.566;2022-12-10T01:47:38;60.73;;;30.30;;
10387;SDS011;5240;51.128;4.566;2022-12-10T01:50:06;54.10;;;30.37;;
10387;SDS011;5240;51.128;4.566;2022-12-10T01:52:34;59.17;;;31.05;;
10387;SDS011;5240;51.128;4.566;2022-12-10T01:55:06;64.27;;;32.70;;
10387;SDS011;5240;51.128;4.566;2022-12-10T01:57:55;55.63;;;30.10;;
10387;SDS011;5240;51.128;4.566;2022-12-10T02:00:22;60.87;;;29.97;;
10387;SDS011;5240;51.128;4.566;2022-12-10T02:02:50;59.33;;;30.52;;
10387;SDS011;5240;51.128;4.566;2022-12-10T02:05:25;64.10;;;32.17;;
10387;SDS011;5240;51.128;4.566;2022-12-10T02:07:59;58.92;;;30.58;;
10387;SDS011;5240;51.128;4.566;2022-12-10T02:10:37;60.63;;;30.25;;
10387;SDS011;5240;51.128;4.566;2022-12-10T02:13:18;60.22;;;30.85;;
10387;SDS011;5240;51.128;4.566;2022-12-10T02:15:51;60.10;;;30.13;;
10387;SDS011;5240;51.128;4.566;2022-12-10T02:18:20;58.70;;;31.35;;
10387;SDS011;5240;51.128;4.566;2022-12-10T02:20:51;59.38;;;29.80;;
10387;SDS011;5240;51.128;4.566;2022-12-10T02:23:22;55.30;;;29.67;;
10387;SDS011;5240;51.128;4.566;2022-12-10T02:25:54;60.90;;;30.52;;
10387;SDS011;5240;51.128;4.566;2022-12-10T02:28:30;57.33;;;29.00;;
10387;SDS011;5240;51.128;4.566;2022-12-10T02:31:04;65.80;;;30.17;;
10387;SDS011;5240;51.128;4.566;2022-12-10T02:33:31;56.93;;;29.87;;
10387;SDS011;5240;51.128;4.566;2022-12-10T02:36:03;61.70;;;30.13;;
10387;SDS011;5240;51.128;4.566;2022-12-10T02:38:32;60.70;;;29.93;;
10387;SDS011;5240;51.128;4.566;2022-12-10T02:41:04;61.55;;;28.98;;
10387;SDS011;5240;51.128;4.566;2022-12-10T02:43:34;60.03;;;30.20;;
10387;SDS011;5240;51.128;4.566;2022-12-10T02:46:03;63.53;;;29.17;;
10387;SDS011;5240;51.128;4.566;2022-12-10T02:48:32;61.20;;;28.83;;
10387;SDS011;5240;51.128;4.566;2022-12-10T02:51:03;64.63;;;30.03;;
10387;SDS011;5240;51.128;4.566;2022-12-10T02:53:31;61.03;;;28.87;;
10387;SDS011;5240;51.128;4.566;2022-12-10T02:56:04;63.53;;;29.27;;
10387;SDS011;5240;51.128;4.566;2022-12-10T02:58:41;58.53;;;28.10;;
10387;SDS011;5240;51.128;4.566;2022-12-10T03:01:19;66.37;;;29.03;;
10387;SDS011;5240;51.128;4.566;2022-12-10T03:03:52;62.20;;;28.90;;
10387;SDS011;5240;51.128;4.566;2022-12-10T03:06:22;67.27;;;29.13;;
10387;SDS011;5240;51.128;4.566;2022-12-10T03:08:54;67.03;;;28.13;;
10387;SDS011;5240;51.128;4.566;2022-12-10T03:11:28;69.40;;;29.30;;
10387;SDS011;5240;51.128;4.566;2022-12-10T03:13:57;63.27;;;27.67;;
10387;SDS011;5240;51.128;4.566;2022-12-10T03:16:31;73.80;;;29.07;;
10387;SDS011;5240;51.128;4.566;2022-12-10T03:19:02;68.73;;;29.00;;
10387;SDS011;5240;51.128;4.566;2022-12-10T03:21:32;75.83;;;29.33;;
10387;SDS011;5240;51.128;4.566;2022-12-10T03:24:01;70.65;;;28.88;;
10387;SDS011;5240;51.128;4.566;2022-12-10T03:26:29;71.80;;;28.90;;
10387;SDS011;5240;51.128;4.566;2022-12-10T03:28:58;66.53;;;28.43;;
10387;SDS011;5240;51.128;4.566;2022-12-10T03:31:32;72.28;;;29.52;;
10387;SDS011;5240;51.128;4.566;2022-12-10T03:34:01;76.17;;;29.50;;
10387;SDS011;5240;51.128;4.566;2022-12-10T03:36:29;68.20;;;28.67;;
10387;SDS011;5240;51.128;4.566;2022-12-10T03:38:58;62.58;;;28.15;;
10387;SDS011;5240;51.128;4.566;2022-12-10T03:41:25;69.38;;;29.17;;
10387;SDS011;5240;51.128;4.566;2022-12-10T03:43:53;70.57;;;28.20;;
10387;SDS011;5240;51.128;4.566;2022-12-10T03:46:21;69.50;;;28.92;;
10387;SDS011;5240;51.128;4.566;2022-12-10T03:48:52;70.00;;;28.80;;
10387;SDS011;5240;51.128;4.566;2022-12-10T03:51:20;66.83;;;29.27;;
10387;SDS011;5240;51.128;4.566;2022-12-10T03:53:47;70.47;;;28.67;;
10387;SDS011;5240;51.128;4.566;2022-12-10T03:56:15;67.90;;;30.53;;
10387;SDS011;5240;51.128;4.566;2022-12-10T03:58:42;65.47;;;27.67;;
10387;SDS011;5240;51.128;4.566;2022-12-10T04:01:09;71.87;;;29.43;;
10387;SDS011;5240;51.128;4.566;2022-12-10T04:03:37;69.40;;;29.53;;
10387;SDS011;5240;51.128;4.566;2022-12-10T04:06:08;64.40;;;28.50;;
10387;SDS011;5240;51.128;4.566;2022-12-10T04:08:36;68.00;;;28.93;;
10387;SDS011;5240;51.128;4.566;2022-12-10T04:11:04;70.72;;;31.75;;
10387;SDS011;5240;51.128;4.566;2022-12-10T04:13:32;66.13;;;29.27;;
10387;SDS011;5240;51.128;4.566;2022-12-10T04:16:18;71.13;;;29.88;;
10387;SDS011;5240;51.128;4.566;2022-12-10T04:18:53;71.47;;;30.57;;
10387;SDS011;5240;51.128;4.566;2022-12-10T04:21:23;72.60;;;29.37;;
10387;SDS011;5240;51.128;4.566;2022-12-10T04:24:08;79.03;;;30.50;;
10387;SDS011;5240;51.128;4.566;2022-12-10T04:26:53;74.33;;;28.87;;
10387;SDS011;5240;51.128;4.566;2022-12-10T04:29:21;74.97;;;28.93;;
10387;SDS011;5240;51.128;4.566;2022-12-10T04:31:50;70.90;;;28.17;;
10387;SDS011;5240;51.128;4.566;2022-12-10T04:34:18;78.00;;;30.17;;
10387;SDS011;5240;51.128;4.566;2022-12-10T04:36:47;70.00;;;29.07;;
10387;SDS011;5240;51.128;4.566;2022-12-10T04:39:14;80.67;;;30.50;;
10387;SDS011;5240;51.128;4.566;2022-12-10T04:41:43;97.20;;;30.67;;
10387;SDS011;5240;51.128;4.566;2022-12-10T04:44:11;81.47;;;33.03;;
10387;SDS011;5240;51.128;4.566;2022-12-10T04:46:38;90.67;;;31.53;;
10387;SDS011;5240;51.128;4.566;2022-12-10T04:49:06;78.90;;;31.13;;
10387;SDS011;5240;51.128;4.566;2022-12-10T04:51:33;81.40;;;32.13;;
10387;SDS011;5240;51.128;4.566;2022-12-10T04:54:02;79.17;;;31.57;;
10387;SDS011;5240;51.128;4.566;2022-12-10T04:56:30;94.13;;;31.63;;
10387;SDS011;5240;51.128;4.566;2022-12-10T04:58:57;98.10;;;31.67;;
10387;SDS011;5240;51.128;4.566;2022-12-10T05:01:24;113.27;;;31.57;;
10387;SDS011;5240;51.128;4.566;2022-12-10T05:03:52;112.03;;;29.33;;
10387;SDS011;5240;51.128;4.566;2022-12-10T05:06:20;86.97;;;30.03;;
10387;SDS011;5240;51.128;4.566;2022-12-10T05:08:47;71.20;;;28.77;;
10387;SDS011;5240;51.128;4.566;2022-12-10T05:11:16;73.70;;;30.17;;
10387;SDS011;5240;51.128;4.566;2022-12-10T05:13:45;73.43;;;28.97;;
10387;SDS011;5240;51.128;4.566;2022-12-10T05:16:13;77.80;;;31.00;;
10387;SDS011;5240;51.128;4.566;2022-12-10T05:18:42;84.57;;;29.43;;
10387;SDS011;5240;51.128;4.566;2022-12-10T05:21:11;117.10;;;33.80;;
10387;SDS011;5240;51.128;4.566;2022-12-10T05:23:41;90.27;;;29.40;;
10387;SDS011;5240;51.128;4.566;2022-12-10T05:26:09;98.00;;;28.67;;
10387;SDS011;5240;51.128;4.566;2022-12-10T05:28:39;76.43;;;29.13;;
10387;SDS011;5240;51.128;4.566;2022-12-10T05:31:11;76.47;;;30.40;;
10387;SDS011;5240;51.128;4.566;2022-12-10T05:33:39;137.07;;;35.20;;
10387;SDS011;5240;51.128;4.566;2022-12-10T05:36:06;91.60;;;29.90;;
10387;SDS011;5240;51.128;4.566;2022-12-10T05:38:35;140.73;;;32.07;;
10387;SDS011;5240;51.128;4.566;2022-12-10T05:41:04;90.10;;;30.90;;
10387;SDS011;5240;51.128;4.566;2022-12-10T05:43:32;150.40;;;30.63;;
10387;SDS011;5240;51.128;4.566;2022-12-10T05:46:01;90.27;;;28.30;;
10387;SDS011;5240;51.128;4.566;2022-12-10T05:48:30;95.90;;;30.10;;
10387;SDS011;5240;51.128;4.566;2022-12-10T05:50:57;82.40;;;31.43;;
10387;SDS011;5240;51.128;4.566;2022-12-10T05:53:29;105.67;;;32.60;;
10387;SDS011;5240;51.128;4.566;2022-12-10T05:55:59;111.37;;;31.03;;
10387;SDS011;5240;51.128;4.566;2022-12-10T05:58:27;79.27;;;31.07;;
10387;SDS011;5240;51.128;4.566;2022-12-10T06:00:55;91.90;;;30.13;;
10387;SDS011;5240;51.128;4.566;2022-12-10T06:03:23;82.73;;;31.07;;
10387;SDS011;5240;51.128;4.566;2022-12-10T06:05:52;85.07;;;31.60;;
10387;SDS011;5240;51.128;4.566;2022-12-10T06:08:19;79.27;;;30.50;;
10387;SDS011;5240;51.128;4.566;2022-12-10T06:10:46;101.53;;;31.90;;
10387;SDS011;5240;51.128;4.566;2022-12-10T06:13:14;96.37;;;30.43;;
10387;SDS011;5240;51.128;4.566;2022-12-10T06:15:41;115.33;;;32.40;;
10387;SDS011;5240;51.128;4.566;2022-12-10T06:18:08;98.33;;;31.57;;
10387;SDS011;5240;51.128;4.566;2022-12-10T06:20:38;113.13;;;33.37;;
10387;SDS011;5240;51.128;4.566;2022-12-10T06:23:05;123.40;;;32.70;;
10387;SDS011;5240;51.128;4.566;2022-12-10T06:25:32;94.57;;;30.80;;
10387;SDS011;5240;51.128;4.566;2022-12-10T06:28:00;99.07;;;32.30;;
10387;SDS011;5240;51.128;4.566;2022-12-10T06:30:27;136.10;;;33.90;;
10387;SDS011;5240;51.128;4.566;2022-12-10T06:32:54;155.90;;;32.57;;
10387;SDS011;5240;51.128;4.566;2022-12-10T06:35:21;107.87;;;32.43;;
10387;SDS011;5240;51.128;4.566;2022-12-10T06:37:50;99.03;;;30.53;;
10387;SDS011;5240;51.128;4.566;2022-12-10T06:40:17;103.23;;;31.83;;
10387;SDS011;5240;51.128;4.566;2022-12-10T06:42:44;93.03;;;31.33;;
10387;SDS011;5240;51.128;4.566;2022-12-10T06:45:11;133.13;;;29.50;;
10387;SDS011;5240;51.128;4.566;2022-12-10T06:47:38;70.43;;;26.43;;
10387;SDS011;5240;51.128;4.566;2022-12-10T06:50:05;71.30;;;26.27;;
10387;SDS011;5240;51.128;4.566;2022-12-10T06:52:33;117.50;;;28.97;;
10387;SDS011;5240;51.128;4.566;2022-12-10T06:55:01;85.37;;;29.53;;
10387;SDS011;5240;51.128;4.566;2022-12-10T06:57:28;91.70;;;30.60;;
10387;SDS011;5240;51.128;4.566;2022-12-10T06:59:55;82.87;;;28.00;;
10387;SDS011;5240;51.128;4.566;2022-12-10T07:02:23;79.80;;;28.83;;
10387;SDS011;5240;51.128;4.566;2022-12-10T07:04:50;77.10;;;29.67;;
10387;SDS011;5240;51.128;4.566;2022-12-10T07:07:17;91.70;;;29.13;;
10387;SDS011;5240;51.128;4.566;2022-12-10T07:09:44;89.77;;;29.73;;
10387;SDS011;5240;51.128;4.566;2022-12-10T07:12:12;85.17;;;29.23;;
10387;SDS011;5240;51.128;4.566;2022-12-10T07:14:41;85.20;;;28.20;;
10387;SDS011;5240;51.128;4.566;2022-12-10T07:17:08;75.87;;;28.50;;
10387;SDS011;5240;51.128;4.566;2022-12-10T07:19:35;81.60;;;29.13;;
10387;SDS011;5240;51.128;4.566;2022-12-10T07:22:02;75.20;;;28.60;;
10387;SDS011;5240;51.128;4.566;2022-12-10T07:24:29;75.20;;;27.97;;
10387;SDS011;5240;51.128;4.566;2022-12-10T07:26:56;70.60;;;26.60;;
10387;SDS011;5240;51.128;4.566;2022-12-10T07:29:25;80.07;;;29.07;;
10387;SDS011;5240;51.128;4.566;2022-12-10T07:31:52;71.07;;;26.43;;
10387;SDS011;5240;51.128;4.566;2022-12-10T07:34:20;71.93;;;27.20;;
10387;SDS011;5240;51.128;4.566;2022-12-10T07:36:47;77.50;;;27.97;;
10387;SDS011;5240;51.128;4.566;2022-12-10T07:39:14;72.50;;;26.90;;
10387;SDS011;5240;51.128;4.566;2022-12-10T07:41:43;92.75;;;27.85;;
10387;SDS011;5240;51.128;4.566;2022-12-10T07:44:11;78.47;;;27.57;;
10387;SDS011;5240;51.128;4.566;2022-12-10T07:46:40;70.67;;;26.67;;
10387;SDS011;5240;51.128;4.566;2022-12-10T07:49:07;84.90;;;28.70;;
10387;SDS011;5240;51.128;4.566;2022-12-10T07:51:34;74.00;;;27.00;;
10387;SDS011;5240;51.128;4.566;2022-12-10T07:54:01;67.70;;;24.50;;
10387;SDS011;5240;51.128;4.566;2022-12-10T07:56:28;59.70;;;25.20;;
10387;SDS011;5240;51.128;4.566;2022-12-10T07:58:56;61.97;;;25.43;;
10387;SDS011;5240;51.128;4.566;2022-12-10T08:01:23;87.00;;;28.43;;
10387;SDS011;5240;51.128;4.566;2022-12-10T08:03:53;73.27;;;26.70;;
10387;SDS011;5240;51.128;4.566;2022-12-10T08:06:23;67.80;;;26.20;;
10387;SDS011;5240;51.128;4.566;2022-12-10T08:08:52;71.70;;;24.83;;
10387;SDS011;5240;51.128;4.566;2022-12-10T08:11:19;70.63;;;25.80;;
10387;SDS011;5240;51.128;4.566;2022-12-10T08:13:48;62.00;;;24.50;;
10387;SDS011;5240;51.128;4.566;2022-12-10T08:16:17;55.80;;;22.40;;
10387;SDS011;5240;51.128;4.566;2022-12-10T08:18:45;58.27;;;22.03;;
10387;SDS011;5240;51.128;4.566;2022-12-10T08:21:15;58.07;;;22.00;;
10387;SDS011;5240;51.128;4.566;2022-12-10T08:23:44;60.20;;;23.63;;
10387;SDS011;5240;51.128;4.566;2022-12-10T08:26:12;66.00;;;24.43;;
10387;SDS011;5240;51.128;4.566;2022-12-10T08:28:40;66.43;;;24.30;;
10387;SDS011;5240;51.128;4.566;2022-12-10T08:31:08;60.50;;;23.80;;
10387;SDS011;5240;51.128;4.566;2022-12-10T08:33:37;62.83;;;22.80;;
10387;SDS011;5240;51.128;4.566;2022-12-10T08:36:05;68.30;;;25.87;;
10387;SDS011;5240;51.128;4.566;2022-12-10T08:38:36;64.17;;;22.87;;
10387;SDS011;5240;51.128;4.566;2022-12-10T08:41:07;65.77;;;24.33;;
10387;SDS011;5240;51.128;4.566;2022-12-10T08:43:34;78.77;;;24.00;;
10387;SDS011;5240;51.128;4.566;2022-12-10T08:46:02;67.50;;;22.93;;
10387;SDS011;5240;51.128;4.566;2022-12-10T08:48:29;62.80;;;23.27;;
10387;SDS011;5240;51.128;4.566;2022-12-10T08:50:57;94.33;;;24.30;;
10387;SDS011;5240;51.128;4.566;2022-12-10T08:53:24;58.70;;;24.13;;
10387;SDS011;5240;51.128;4.566;2022-12-10T08:55:53;63.87;;;23.67;;
10387;SDS011;5240;51.128;4.566;2022-12-10T08:58:20;67.87;;;25.03;;
10387;SDS011;5240;51.128;4.566;2022-12-10T09:00:48;73.63;;;22.67;;
10387;SDS011;5240;51.128;4.566;2022-12-10T09:03:15;79.23;;;25.17;;
10387;SDS011;5240;51.128;4.566;2022-12-10T09:05:43;64.80;;;24.77;;
10387;SDS011;5240;51.128;4.566;2022-12-10T09:08:10;76.63;;;25.00;;
10387;SDS011;5240;51.128;4.566;2022-12-10T09:10:38;74.70;;;24.93;;
10387;SDS011;5240;51.128;4.566;2022-12-10T09:13:07;69.40;;;26.13;;
10387;SDS011;5240;51.128;4.566;2022-12-10T09:15:34;72.23;;;27.13;;
10387;SDS011;5240;51.128;4.566;2022-12-10T09:18:01;74.67;;;27.43;;
10387;SDS011;5240;51.128;4.566;2022-12-10T09:20:28;63.17;;;24.80;;
10387;SDS011;5240;51.128;4.566;2022-12-10T09:22:55;65.97;;;25.83;;
10387;SDS011;5240;51.128;4.566;2022-12-10T09:25:23;61.33;;;24.53;;
10387;SDS011;5240;51.128;4.566;2022-12-10T09:27:50;73.30;;;30.20;;
10387;SDS011;5240;51.128;4.566;2022-12-10T09:30:18;77.00;;;25.47;;
10387;SDS011;5240;51.128;4.566;2022-12-10T09:32:45;59.87;;;24.37;;
10387;SDS011;5240;51.128;4.566;2022-12-10T09:35:12;76.10;;;33.20;;
10387;SDS011;5240;51.128;4.566;2022-12-10T09:37:40;64.50;;;28.77;;
10387;SDS011;5240;51.128;4.566;2022-12-10T09:40:08;68.33;;;28.60;;
10387;SDS011;5240;51.128;4.566;2022-12-10T09:42:42;69.35;;;26.30;;
10387;SDS011;5240;51.128;4.566;2022-12-10T09:45:19;63.40;;;25.93;;
10387;SDS011;5240;51.128;4.566;2022-12-10T09:47:54;69.13;;;27.33;;
10387;SDS011;5240;51.128;4.566;2022-12-10T09:50:29;72.27;;;25.10;;
10387;SDS011;5240;51.128;4.566;2022-12-10T09:53:01;77.40;;;28.10;;
10387;SDS011;5240;51.128;4.566;2022-12-10T09:55:31;78.73;;;31.47;;
10387;SDS011;5240;51.128;4.566;2022-12-10T09:58:02;70.13;;;28.43;;
10387;SDS011;5240;51.128;4.566;2022-12-10T10:00:34;67.43;;;27.30;;
10387;SDS011;5240;51.128;4.566;2022-12-10T10:03:03;75.00;;;27.97;;
10387;SDS011;5240;51.128;4.566;2022-12-10T10:05:32;74.47;;;27.20;;
10387;SDS011;5240;51.128;4.566;2022-12-10T10:08:03;72.60;;;28.03;;
10387;SDS011;5240;51.128;4.566;2022-12-10T10:10:32;76.10;;;27.53;;
10387;SDS011;5240;51.128;4.566;2022-12-10T10:13:01;77.47;;;28.47;;
10387;SDS011;5240;51.128;4.566;2022-12-10T10:15:41;73.00;;;28.33;;
10387;SDS011;5240;51.128;4.566;2022-12-10T10:18:13;69.53;;;27.90;;
10387;SDS011;5240;51.128;4.566;2022-12-10T10:20:44;79.20;;;29.67;;
10387;SDS011;5240;51.128;4.566;2022-12-10T10:23:12;74.53;;;28.90;;
10387;SDS011;5240;51.128;4.566;2022-12-10T10:25:41;63.83;;;26.10;;
10387;SDS011;5240;51.128;4.566;2022-12-10T10:28:09;72.93;;;28.00;;
10387;SDS011;5240;51.128;4.566;2022-12-10T10:30:41;62.57;;;25.57;;
10387;SDS011;5240;51.128;4.566;2022-12-10T10:33:10;69.57;;;27.47;;
10387;SDS011;5240;51.128;4.566;2022-12-10T10:35:43;70.97;;;26.27;;
10387;SDS011;5240;51.128;4.566;2022-12-10T10:38:14;72.40;;;27.17;;
10387;SDS011;5240;51.128;4.566;2022-12-10T10:40:45;76.97;;;29.73;;
10387;SDS011;5240;51.128;4.566;2022-12-10T10:43:18;72.82;;;28.02;;
10387;SDS011;5240;51.128;4.566;2022-12-10T10:45:49;67.63;;;26.43;;
10387;SDS011;5240;51.128;4.566;2022-12-10T10:48:19;67.83;;;26.23;;
10387;SDS011;5240;51.128;4.566;2022-12-10T10:50:48;67.70;;;26.70;;
10387;SDS011;5240;51.128;4.566;2022-12-10T10:53:21;71.80;;;27.90;;
10387;SDS011;5240;51.128;4.566;2022-12-10T10:55:50;75.30;;;28.13;;
10387;SDS011;5240;51.128;4.566;2022-12-10T10:58:19;74.45;;;27.98;;
10387;SDS011;5240;51.128;4.566;2022-12-10T11:00:54;74.60;;;27.20;;
10387;SDS011;5240;51.128;4.566;2022-12-10T11:03:24;64.20;;;26.10;;
10387;SDS011;5240;51.128;4.566;2022-12-10T11:05:53;71.07;;;27.38;;
10387;SDS011;5240;51.128;4.566;2022-12-10T11:08:22;68.90;;;27.17;;
10387;SDS011;5240;51.128;4.566;2022-12-10T11:10:55;74.97;;;28.70;;
10387;SDS011;5240;51.128;4.566;2022-12-10T11:13:27;72.67;;;29.60;;
10387;SDS011;5240;51.128;4.566;2022-12-10T11:15:58;69.47;;;26.43;;
10387;SDS011;5240;51.128;4.566;2022-12-10T11:18:29;63.47;;;25.33;;
10387;SDS011;5240;51.128;4.566;2022-12-10T11:21:01;60.30;;;25.17;;
10387;SDS011;5240;51.128;4.566;2022-12-10T11:23:31;60.08;;;23.50;;
10387;SDS011;5240;51.128;4.566;2022-12-10T11:26:07;60.63;;;25.48;;
10387;SDS011;5240;51.128;4.566;2022-12-10T11:28:46;57.63;;;23.77;;
10387;SDS011;5240;51.128;4.566;2022-12-10T11:31:27;63.03;;;23.88;;
10387;SDS011;5240;51.128;4.566;2022-12-10T11:34:06;54.88;;;23.13;;
10387;SDS011;5240;51.128;4.566;2022-12-10T11:36:41;55.28;;;24.20;;
10387;SDS011;5240;51.128;4.566;2022-12-10T11:39:22;58.13;;;25.42;;
10387;SDS011;5240;51.128;4.566;2022-12-10T11:41:59;64.18;;;23.98;;
10387;SDS011;5240;51.128;4.566;2022-12-10T11:44:34;58.90;;;25.67;;
10387;SDS011;5240;51.128;4.566;2022-12-10T11:47:22;59.97;;;25.55;;
10387;SDS011;5240;51.128;4.566;2022-12-10T11:50:09;65.25;;;25.80;;
10387;SDS011;5240;51.128;4.566;2022-12-10T11:52:48;65.45;;;24.95;;
10387;SDS011;5240;51.128;4.566;2022-12-10T11:55:27;58.50;;;24.00;;
10387;SDS011;5240;51.128;4.566;2022-12-10T11:58:07;62.40;;;24.63;;
10387;SDS011;5240;51.128;4.566;2022-12-10T12:00:52;58.10;;;24.30;;
10387;SDS011;5240;51.128;4.566;2022-12-10T12:03:31;63.00;;;25.58;;
10387;SDS011;5240;51.128;4.566;2022-12-10T12:06:22;65.78;;;27.95;;
10387;SDS011;5240;51.128;4.566;2022-12-10T12:09:05;61.90;;;25.73;;
10387;SDS011;5240;51.128;4.566;2022-12-10T12:11:47;64.63;;;24.77;;
10387;SDS011;5240;51.128;4.566;2022-12-10T12:14:22;54.50;;;24.23;;
10387;SDS011;5240;51.128;4.566;2022-12-10T12:16:56;56.97;;;23.95;;
10387;SDS011;5240;51.128;4.566;2022-12-10T12:19:31;55.83;;;23.83;;
10387;SDS011;5240;51.128;4.566;2022-12-10T12:22:09;60.53;;;25.02;;
10387;SDS011;5240;51.128;4.566;2022-12-10T12:24:41;60.75;;;25.40;;
10387;SDS011;5240;51.128;4.566;2022-12-10T12:27:12;52.63;;;22.48;;
10387;SDS011;5240;51.128;4.566;2022-12-10T12:29:47;57.45;;;25.35;;
10387;SDS011;5240;51.128;4.566;2022-12-10T12:32:24;57.38;;;23.98;;
10387;SDS011;5240;51.128;4.566;2022-12-10T12:34:56;57.55;;;24.58;;
10387;SDS011;5240;51.128;4.566;2022-12-10T12:37:30;64.45;;;26.15;;
10387;SDS011;5240;51.128;4.566;2022-12-10T12:40:03;54.97;;;23.10;;
10387;SDS011;5240;51.128;4.566;2022-12-10T12:42:38;49.17;;;22.48;;
10387;SDS011;5240;51.128;4.566;2022-12-10T12:45:12;57.20;;;23.88;;
10387;SDS011;5240;51.128;4.566;2022-12-10T12:47:43;59.08;;;23.67;;
10387;SDS011;5240;51.128;4.566;2022-12-10T12:50:22;89.32;;;27.17;;
10387;SDS011;5240;51.128;4.566;2022-12-10T12:52:53;59.45;;;24.17;;
10387;SDS011;5240;51.128;4.566;2022-12-10T12:55:24;60.80;;;25.98;;
10387;SDS011;5240;51.128;4.566;2022-12-10T12:58:01;72.50;;;27.95;;
10387;SDS011;5240;51.128;4.566;2022-12-10T13:00:37;57.42;;;23.20;;
10387;SDS011;5240;51.128;4.566;2022-12-10T13:03:08;59.40;;;23.20;;
10387;SDS011;5240;51.128;4.566;2022-12-10T13:05:48;56.35;;;23.17;;
10387;SDS011;5240;51.128;4.566;2022-12-10T13:08:23;54.80;;;22.33;;
10387;SDS011;5240;51.128;4.566;2022-12-10T13:10:56;51.38;;;22.95;;
10387;SDS011;5240;51.128;4.566;2022-12-10T13:13:28;56.08;;;22.42;;
10387;SDS011;5240;51.128;4.566;2022-12-10T13:19:07;50.28;;;21.65;;
10387;SDS011;5240;51.128;4.566;2022-12-10T13:21:58;50.78;;;22.92;;
10387;SDS011;5240;51.128;4.566;2022-12-10T13:24:46;50.25;;;22.15;;
10387;SDS011;5240;51.128;4.566;2022-12-10T13:27:29;50.70;;;23.10;;
10387;SDS011;5240;51.128;4.566;2022-12-10T13:29:59;46.45;;;21.15;;
10387;SDS011;5240;51.128;4.566;2022-12-10T13:32:42;46.05;;;21.92;;
10387;SDS011;5240;51.128;4.566;2022-12-10T13:35:31;47.55;;;22.20;;
10387;SDS011;5240;51.128;4.566;2022-12-10T13:38:18;50.50;;;22.10;;
10387;SDS011;5240;51.128;4.566;2022-12-10T13:40:56;47.58;;;21.30;;
10387;SDS011;5240;51.128;4.566;2022-12-10T13:43:45;48.53;;;21.58;;
10387;SDS011;5240;51.128;4.566;2022-12-10T13:49:24;49.78;;;21.25;;
10387;SDS011;5240;51.128;4.566;2022-12-10T13:52:03;57.33;;;22.90;;
10387;SDS011;5240;51.128;4.566;2022-12-10T13:57:41;47.70;;;21.35;;
10387;SDS011;5240;51.128;4.566;2022-12-10T14:00:32;45.60;;;19.85;;
10387;SDS011;5240;51.128;4.566;2022-12-10T14:03:19;48.67;;;19.92;;
10387;SDS011;5240;51.128;4.566;2022-12-10T14:06:14;45.95;;;20.10;;
10387;SDS011;5240;51.128;4.566;2022-12-10T14:08:47;47.33;;;21.30;;
10387;SDS011;5240;51.128;4.566;2022-12-10T14:11:25;48.30;;;21.33;;
10387;SDS011;5240;51.128;4.566;2022-12-10T14:13:56;44.63;;;21.17;;
10387;SDS011;5240;51.128;4.566;2022-12-10T14:16:26;45.30;;;21.15;;
10387;SDS011;5240;51.128;4.566;2022-12-10T14:18:57;39.33;;;20.77;;
10387;SDS011;5240;51.128;4.566;2022-12-10T14:21:26;43.28;;;20.92;;
10387;SDS011;5240;51.128;4.566;2022-12-10T14:23:57;47.88;;;22.88;;
10387;SDS011;5240;51.128;4.566;2022-12-10T14:26:27;47.10;;;20.75;;
10387;SDS011;5240;51.128;4.566;2022-12-10T14:28:56;48.90;;;21.23;;
10387;SDS011;5240;51.128;4.566;2022-12-10T14:31:26;45.47;;;20.60;;
10387;SDS011;5240;51.128;4.566;2022-12-10T14:33:57;48.40;;;21.02;;
10387;SDS011;5240;51.128;4.566;2022-12-10T14:36:29;43.88;;;20.48;;
10387;SDS011;5240;51.128;4.566;2022-12-10T14:38:58;44.40;;;19.40;;
10387;SDS011;5240;51.128;4.566;2022-12-10T14:41:29;44.90;;;21.20;;
10387;SDS011;5240;51.128;4.566;2022-12-10T14:43:58;49.00;;;20.77;;
10387;SDS011;5240;51.128;4.566;2022-12-10T14:46:30;45.72;;;19.48;;
10387;SDS011;5240;51.128;4.566;2022-12-10T14:48:58;48.08;;;19.60;;
10387;SDS011;5240;51.128;4.566;2022-12-10T14:51:26;44.53;;;19.85;;
10387;SDS011;5240;51.128;4.566;2022-12-10T14:53:59;48.92;;;20.48;;
10387;SDS011;5240;51.128;4.566;2022-12-10T14:56:26;43.22;;;20.02;;
10387;SDS011;5240;51.128;4.566;2022-12-10T14:59:03;48.22;;;20.88;;
10387;SDS011;5240;51.128;4.566;2022-12-10T15:01:34;46.60;;;20.40;;
10387;SDS011;5240;51.128;4.566;2022-12-10T15:04:06;36.50;;;18.25;;